sensor_id;sensor_type;location;lat;lon;timestamp;P1;durP1;ratioP1;P2;durP2;ratioP2
17052;SDS011;8643;48.824;11.422;2024-03-23T00:54:21;16.60;;;10.70;;
17052;SDS011;8643;48.824;11.422;2024-03-23T00:56:47;14.70;;;9.60;;
17052;SDS011;8643;48.824;11.422;2024-03-23T00:59:14;17.97;;;9.90;;
17052;SDS011;8643;48.824;11.422;2024-03-23T01:01:41;16.47;;;10.03;;
17052;SDS011;8643;48.824;11.422;2024-03-23T01:04:08;15.93;;;10.63;;
17052;SDS011;8643;48.824;11.422;2024-03-23T01:06:35;15.43;;;10.30;;
17052;SDS011;8643;48.824;11.422;2024-03-23T01:09:03;16.23;;;10.93;;
17052;SDS011;8643;48.824;11.422;2024-03-23T01:11:30;17.20;;;10.80;;
17052;SDS011;8643;48.824;11.422;2024-03-23T01:13:57;19.93;;;11.43;;
17052;SDS011;8643;48.824;11.422;2024-03-23T01:16:24;18.73;;;11.20;;
17052;SDS011;8643;48.824;11.422;2024-03-23T01:18:51;16.13;;;10.87;;
17052;SDS011;8643;48.824;11.422;2024-03-23T01:21:17;17.97;;;10.20;;
17052;SDS011;8643;48.824;11.422;2024-03-23T01:23:45;16.80;;;10.93;;
17052;SDS011;8643;48.824;11.422;2024-03-23T01:26:12;16.23;;;10.47;;
17052;SDS011;8643;48.824;11.422;2024-03-23T01:28:40;14.40;;;10.23;;
17052;SDS011;8643;48.824;11.422;2024-03-23T01:31:06;13.77;;;9.37;;
17052;SDS011;8643;48.824;11.422;2024-03-23T01:33:34;17.37;;;11.27;;
17052;SDS011;8643;48.824;11.422;2024-03-23T01:36:00;18.47;;;10.73;;
17052;SDS011;8643;48.824;11.422;2024-03-23T01:38:28;16.80;;;10.47;;
17052;SDS011;8643;48.824;11.422;2024-03-23T01:40:56;14.97;;;9.90;;
17052;SDS011;8643;48.824;11.422;2024-03-23T01:43:25;17.23;;;10.33;;
17052;SDS011;8643;48.824;11.422;2024-03-23T01:45:52;15.37;;;10.80;;
17052;SDS011;8643;48.824;11.422;2024-03-23T01:48:20;16.07;;;10.23;;
17052;SDS011;8643;48.824;11.422;2024-03-23T01:50:46;13.70;;;9.90;;
17052;SDS011;8643;48.824;11.422;2024-03-23T01:53:14;15.73;;;10.13;;
17052;SDS011;8643;48.824;11.422;2024-03-23T01:55:42;16.50;;;10.50;;
17052;SDS011;8643;48.824;11.422;2024-03-23T01:58:10;17.53;;;11.07;;
17052;SDS011;8643;48.824;11.422;2024-03-23T02:00:38;16.87;;;11.13;;
17052;SDS011;8643;48.824;11.422;2024-03-23T02:05:51;17.87;;;9.60;;
17052;SDS011;8643;48.824;11.422;2024-03-23T02:08:21;14.30;;;9.43;;
17052;SDS011;8643;48.824;11.422;2024-03-23T02:10:49;16.40;;;9.13;;
17052;SDS011;8643;48.824;11.422;2024-03-23T02:13:18;14.23;;;8.80;;
17052;SDS011;8643;48.824;11.422;2024-03-23T02:15:46;16.27;;;9.10;;
17052;SDS011;8643;48.824;11.422;2024-03-23T02:18:14;14.63;;;9.53;;
17052;SDS011;8643;48.824;11.422;2024-03-23T02:20:40;16.03;;;9.87;;
17052;SDS011;8643;48.824;11.422;2024-03-23T02:23:14;15.30;;;9.03;;
17052;SDS011;8643;48.824;11.422;2024-03-23T02:25:40;15.97;;;9.77;;
17052;SDS011;8643;48.824;11.422;2024-03-23T02:28:08;17.70;;;10.13;;
17052;SDS011;8643;48.824;11.422;2024-03-23T02:30:35;20.07;;;10.83;;
17052;SDS011;8643;48.824;11.422;2024-03-23T02:33:02;17.97;;;9.83;;
17052;SDS011;8643;48.824;11.422;2024-03-23T02:35:29;15.10;;;9.57;;
17052;SDS011;8643;48.824;11.422;2024-03-23T02:37:57;15.07;;;9.67;;
17052;SDS011;8643;48.824;11.422;2024-03-23T02:40:27;17.67;;;9.50;;
17052;SDS011;8643;48.824;11.422;2024-03-23T02:42:56;15.73;;;9.87;;
17052;SDS011;8643;48.824;11.422;2024-03-23T02:45:22;16.90;;;11.03;;
17052;SDS011;8643;48.824;11.422;2024-03-23T02:47:50;14.33;;;10.20;;
17052;SDS011;8643;48.824;11.422;2024-03-23T02:50:18;16.80;;;10.80;;
17052;SDS011;8643;48.824;11.422;2024-03-23T02:52:45;15.50;;;10.50;;
17052;SDS011;8643;48.824;11.422;2024-03-23T02:55:12;15.60;;;10.80;;
17052;SDS011;8643;48.824;11.422;2024-03-23T02:57:41;15.73;;;10.40;;
17052;SDS011;8643;48.824;11.422;2024-03-23T03:00:09;16.50;;;10.60;;
17052;SDS011;8643;48.824;11.422;2024-03-23T03:02:36;17.40;;;10.43;;
17052;SDS011;8643;48.824;11.422;2024-03-23T03:05:04;14.10;;;10.13;;
17052;SDS011;8643;48.824;11.422;2024-03-23T03:07:31;14.47;;;9.73;;
17052;SDS011;8643;48.824;11.422;2024-03-23T03:09:59;14.53;;;9.00;;
17052;SDS011;8643;48.824;11.422;2024-03-23T03:12:26;17.07;;;9.73;;
17052;SDS011;8643;48.824;11.422;2024-03-23T03:14:54;17.40;;;9.67;;
17052;SDS011;8643;48.824;11.422;2024-03-23T03:17:21;18.57;;;10.53;;
17052;SDS011;8643;48.824;11.422;2024-03-23T03:19:49;15.93;;;9.67;;
17052;SDS011;8643;48.824;11.422;2024-03-23T03:22:21;15.37;;;9.07;;
17052;SDS011;8643;48.824;11.422;2024-03-23T03:24:49;14.07;;;9.23;;
17052;SDS011;8643;48.824;11.422;2024-03-23T03:27:15;14.17;;;8.70;;
17052;SDS011;8643;48.824;11.422;2024-03-23T03:29:43;11.67;;;8.20;;
17052;SDS011;8643;48.824;11.422;2024-03-23T03:32:11;15.37;;;9.83;;
17052;SDS011;8643;48.824;11.422;2024-03-23T03:34:39;13.87;;;9.13;;
17052;SDS011;8643;48.824;11.422;2024-03-23T03:37:05;15.93;;;8.90;;
17052;SDS011;8643;48.824;11.422;2024-03-23T03:39:34;13.03;;;8.70;;
17052;SDS011;8643;48.824;11.422;2024-03-23T03:42:00;13.23;;;8.53;;
17052;SDS011;8643;48.824;11.422;2024-03-23T03:44:32;10.33;;;7.77;;
17052;SDS011;8643;48.824;11.422;2024-03-23T03:46:58;13.70;;;7.70;;
17052;SDS011;8643;48.824;11.422;2024-03-23T03:49:27;11.13;;;8.07;;
17052;SDS011;8643;48.824;11.422;2024-03-23T03:51:54;12.00;;;8.10;;
17052;SDS011;8643;48.824;11.422;2024-03-23T03:54:21;11.30;;;7.90;;
17052;SDS011;8643;48.824;11.422;2024-03-23T03:56:48;16.00;;;8.50;;
17052;SDS011;8643;48.824;11.422;2024-03-23T03:59:15;16.27;;;9.37;;
17052;SDS011;8643;48.824;11.422;2024-03-23T04:01:43;11.97;;;7.80;;
17052;SDS011;8643;48.824;11.422;2024-03-23T04:04:10;16.03;;;7.87;;
17052;SDS011;8643;48.824;11.422;2024-03-23T04:06:38;10.43;;;7.73;;
17052;SDS011;8643;48.824;11.422;2024-03-23T04:09:07;11.27;;;7.63;;
17052;SDS011;8643;48.824;11.422;2024-03-23T04:11:33;10.57;;;7.57;;
17052;SDS011;8643;48.824;11.422;2024-03-23T04:14:01;10.67;;;6.83;;
17052;SDS011;8643;48.824;11.422;2024-03-23T04:16:27;15.20;;;7.70;;
17052;SDS011;8643;48.824;11.422;2024-03-23T04:18:57;9.53;;;7.07;;
17052;SDS011;8643;48.824;11.422;2024-03-23T04:21:24;10.03;;;7.07;;
17052;SDS011;8643;48.824;11.422;2024-03-23T04:23:53;10.03;;;6.90;;
17052;SDS011;8643;48.824;11.422;2024-03-23T04:26:19;11.43;;;6.63;;
17052;SDS011;8643;48.824;11.422;2024-03-23T04:28:47;10.53;;;7.07;;
17052;SDS011;8643;48.824;11.422;2024-03-23T04:31:14;10.20;;;6.80;;
17052;SDS011;8643;48.824;11.422;2024-03-23T04:33:41;13.07;;;7.43;;
17052;SDS011;8643;48.824;11.422;2024-03-23T04:36:08;11.60;;;7.33;;
17052;SDS011;8643;48.824;11.422;2024-03-23T04:38:35;11.83;;;6.83;;
17052;SDS011;8643;48.824;11.422;2024-03-23T04:41:04;9.07;;;6.87;;
17052;SDS011;8643;48.824;11.422;2024-03-23T04:43:32;10.17;;;6.90;;
17052;SDS011;8643;48.824;11.422;2024-03-23T04:45:59;10.10;;;6.47;;
17052;SDS011;8643;48.824;11.422;2024-03-23T04:48:27;12.33;;;6.50;;
17052;SDS011;8643;48.824;11.422;2024-03-23T04:50:54;11.87;;;6.30;;
17052;SDS011;8643;48.824;11.422;2024-03-23T04:53:23;9.73;;;6.50;;
17052;SDS011;8643;48.824;11.422;2024-03-23T04:55:54;8.67;;;6.47;;
17052;SDS011;8643;48.824;11.422;2024-03-23T04:58:22;9.40;;;6.47;;
17052;SDS011;8643;48.824;11.422;2024-03-23T05:00:53;10.40;;;6.17;;
17052;SDS011;8643;48.824;11.422;2024-03-23T05:03:20;9.23;;;6.43;;
17052;SDS011;8643;48.824;11.422;2024-03-23T05:05:48;8.67;;;6.43;;
17052;SDS011;8643;48.824;11.422;2024-03-23T05:08:14;8.53;;;6.67;;
17052;SDS011;8643;48.824;11.422;2024-03-23T05:10:42;9.20;;;6.40;;
17052;SDS011;8643;48.824;11.422;2024-03-23T05:13:09;10.97;;;7.10;;
17052;SDS011;8643;48.824;11.422;2024-03-23T05:15:38;10.83;;;7.40;;
17052;SDS011;8643;48.824;11.422;2024-03-23T05:18:05;10.83;;;7.10;;
17052;SDS011;8643;48.824;11.422;2024-03-23T05:20:33;10.70;;;6.90;;
17052;SDS011;8643;48.824;11.422;2024-03-23T05:22:59;10.37;;;7.10;;
17052;SDS011;8643;48.824;11.422;2024-03-23T05:25:27;11.23;;;6.53;;
17052;SDS011;8643;48.824;11.422;2024-03-23T05:27:53;11.53;;;6.57;;
17052;SDS011;8643;48.824;11.422;2024-03-23T05:30:21;9.47;;;6.90;;
17052;SDS011;8643;48.824;11.422;2024-03-23T05:32:48;10.23;;;6.23;;
17052;SDS011;8643;48.824;11.422;2024-03-23T05:35:16;10.57;;;6.67;;
17052;SDS011;8643;48.824;11.422;2024-03-23T05:37:42;10.67;;;7.30;;
17052;SDS011;8643;48.824;11.422;2024-03-23T05:40:10;10.53;;;7.03;;
17052;SDS011;8643;48.824;11.422;2024-03-23T05:42:40;10.63;;;7.00;;
17052;SDS011;8643;48.824;11.422;2024-03-23T05:45:08;10.03;;;6.50;;
17052;SDS011;8643;48.824;11.422;2024-03-23T05:47:34;9.87;;;7.03;;
17052;SDS011;8643;48.824;11.422;2024-03-23T05:50:04;12.77;;;7.43;;
17052;SDS011;8643;48.824;11.422;2024-03-23T05:52:31;11.30;;;7.13;;
17052;SDS011;8643;48.824;11.422;2024-03-23T05:54:59;10.50;;;7.03;;
17052;SDS011;8643;48.824;11.422;2024-03-23T05:57:25;11.93;;;7.20;;
17052;SDS011;8643;48.824;11.422;2024-03-23T05:59:53;9.57;;;6.87;;
17052;SDS011;8643;48.824;11.422;2024-03-23T06:02:19;8.97;;;6.80;;
17052;SDS011;8643;48.824;11.422;2024-03-23T06:04:47;11.83;;;7.30;;
17052;SDS011;8643;48.824;11.422;2024-03-23T06:07:15;10.53;;;7.23;;
17052;SDS011;8643;48.824;11.422;2024-03-23T06:09:42;11.13;;;7.20;;
17052;SDS011;8643;48.824;11.422;2024-03-23T06:12:09;8.73;;;6.83;;
17052;SDS011;8643;48.824;11.422;2024-03-23T06:14:36;9.73;;;6.87;;
17052;SDS011;8643;48.824;11.422;2024-03-23T06:17:03;8.83;;;6.40;;
17052;SDS011;8643;48.824;11.422;2024-03-23T06:19:31;13.03;;;6.67;;
17052;SDS011;8643;48.824;11.422;2024-03-23T06:21:57;11.83;;;6.90;;
17052;SDS011;8643;48.824;11.422;2024-03-23T06:24:26;9.13;;;6.20;;
17052;SDS011;8643;48.824;11.422;2024-03-23T06:26:53;10.87;;;5.80;;
17052;SDS011;8643;48.824;11.422;2024-03-23T06:29:20;8.33;;;5.77;;
17052;SDS011;8643;48.824;11.422;2024-03-23T06:31:52;9.32;;;6.32;;
17052;SDS011;8643;48.824;11.422;2024-03-23T06:34:21;10.35;;;6.00;;
17052;SDS011;8643;48.824;11.422;2024-03-23T06:36:48;9.57;;;5.82;;
17052;SDS011;8643;48.824;11.422;2024-03-23T06:39:16;7.53;;;5.63;;
17052;SDS011;8643;48.824;11.422;2024-03-23T06:41:51;6.85;;;5.53;;
17052;SDS011;8643;48.824;11.422;2024-03-23T06:44:20;7.00;;;5.47;;
17052;SDS011;8643;48.824;11.422;2024-03-23T06:46:47;7.07;;;5.50;;
17052;SDS011;8643;48.824;11.422;2024-03-23T06:49:15;7.70;;;5.15;;
17052;SDS011;8643;48.824;11.422;2024-03-23T06:51:41;8.15;;;5.50;;
17052;SDS011;8643;48.824;11.422;2024-03-23T06:54:09;7.05;;;5.22;;
17052;SDS011;8643;48.824;11.422;2024-03-23T06:56:36;9.85;;;5.57;;
17052;SDS011;8643;48.824;11.422;2024-03-23T06:59:04;11.43;;;6.28;;
17052;SDS011;8643;48.824;11.422;2024-03-23T07:01:32;11.05;;;6.00;;
17052;SDS011;8643;48.824;11.422;2024-03-23T07:03:58;8.90;;;6.13;;
17052;SDS011;8643;48.824;11.422;2024-03-23T07:06:26;8.73;;;5.53;;
17052;SDS011;8643;48.824;11.422;2024-03-23T07:08:52;9.27;;;5.90;;
17052;SDS011;8643;48.824;11.422;2024-03-23T07:11:20;8.80;;;6.60;;
17052;SDS011;8643;48.824;11.422;2024-03-23T07:13:49;7.78;;;5.47;;
17052;SDS011;8643;48.824;11.422;2024-03-23T07:16:18;8.60;;;5.47;;
17052;SDS011;8643;48.824;11.422;2024-03-23T07:18:45;9.77;;;5.83;;
17052;SDS011;8643;48.824;11.422;2024-03-23T07:21:14;8.83;;;5.83;;
17052;SDS011;8643;48.824;11.422;2024-03-23T07:23:41;10.67;;;6.53;;
17052;SDS011;8643;48.824;11.422;2024-03-23T07:26:10;13.67;;;7.30;;
17052;SDS011;8643;48.824;11.422;2024-03-23T07:28:37;11.70;;;7.00;;
17052;SDS011;8643;48.824;11.422;2024-03-23T07:31:09;11.17;;;6.90;;
17052;SDS011;8643;48.824;11.422;2024-03-23T07:33:41;11.87;;;6.90;;
17052;SDS011;8643;48.824;11.422;2024-03-23T07:36:10;11.43;;;7.00;;
17052;SDS011;8643;48.824;11.422;2024-03-23T07:38:37;9.97;;;5.73;;
17052;SDS011;8643;48.824;11.422;2024-03-23T07:41:07;8.13;;;5.30;;
17052;SDS011;8643;48.824;11.422;2024-03-23T07:43:36;7.40;;;4.57;;
17052;SDS011;8643;48.824;11.422;2024-03-23T07:46:05;7.90;;;4.37;;
17052;SDS011;8643;48.824;11.422;2024-03-23T07:48:32;7.87;;;5.20;;
17052;SDS011;8643;48.824;11.422;2024-03-23T07:51:02;7.93;;;4.93;;
17052;SDS011;8643;48.824;11.422;2024-03-23T07:53:30;8.57;;;5.00;;
17052;SDS011;8643;48.824;11.422;2024-03-23T07:55:59;9.80;;;4.83;;
17052;SDS011;8643;48.824;11.422;2024-03-23T07:58:27;9.10;;;5.40;;
17052;SDS011;8643;48.824;11.422;2024-03-23T08:00:55;9.33;;;5.70;;
17052;SDS011;8643;48.824;11.422;2024-03-23T08:03:30;11.03;;;6.07;;
17052;SDS011;8643;48.824;11.422;2024-03-23T08:05:57;12.07;;;6.60;;
17052;SDS011;8643;48.824;11.422;2024-03-23T08:08:26;10.53;;;5.87;;
17052;SDS011;8643;48.824;11.422;2024-03-23T08:10:53;13.10;;;6.77;;
17052;SDS011;8643;48.824;11.422;2024-03-23T08:13:21;10.10;;;6.17;;
17052;SDS011;8643;48.824;11.422;2024-03-23T08:15:47;9.23;;;6.40;;
17052;SDS011;8643;48.824;11.422;2024-03-23T08:18:15;10.30;;;6.67;;
17052;SDS011;8643;48.824;11.422;2024-03-23T08:20:41;11.63;;;6.67;;
17052;SDS011;8643;48.824;11.422;2024-03-23T08:23:09;11.63;;;6.60;;
17052;SDS011;8643;48.824;11.422;2024-03-23T08:25:36;11.07;;;6.50;;
17052;SDS011;8643;48.824;11.422;2024-03-23T08:28:04;12.03;;;6.40;;
17052;SDS011;8643;48.824;11.422;2024-03-23T08:30:34;9.90;;;5.90;;
17052;SDS011;8643;48.824;11.422;2024-03-23T08:33:02;10.93;;;5.20;;
17052;SDS011;8643;48.824;11.422;2024-03-23T08:35:30;9.50;;;5.67;;
17052;SDS011;8643;48.824;11.422;2024-03-23T08:37:57;7.87;;;5.50;;
17052;SDS011;8643;48.824;11.422;2024-03-23T08:40:24;6.83;;;4.80;;
17052;SDS011;8643;48.824;11.422;2024-03-23T08:42:53;8.90;;;4.63;;
17052;SDS011;8643;48.824;11.422;2024-03-23T08:45:19;6.87;;;4.50;;
17052;SDS011;8643;48.824;11.422;2024-03-23T08:47:47;6.27;;;3.87;;
17052;SDS011;8643;48.824;11.422;2024-03-23T08:50:14;7.10;;;4.13;;
17052;SDS011;8643;48.824;11.422;2024-03-23T08:52:41;6.47;;;4.20;;
17052;SDS011;8643;48.824;11.422;2024-03-23T08:55:08;6.37;;;4.13;;
17052;SDS011;8643;48.824;11.422;2024-03-23T08:57:36;6.77;;;4.40;;
17052;SDS011;8643;48.824;11.422;2024-03-23T09:00:04;6.50;;;4.00;;
17052;SDS011;8643;48.824;11.422;2024-03-23T09:02:36;6.90;;;4.07;;
17052;SDS011;8643;48.824;11.422;2024-03-23T09:05:03;7.43;;;4.07;;
17052;SDS011;8643;48.824;11.422;2024-03-23T09:07:32;6.27;;;3.53;;
17052;SDS011;8643;48.824;11.422;2024-03-23T09:09:58;5.47;;;3.33;;
17052;SDS011;8643;48.824;11.422;2024-03-23T09:12:26;6.80;;;3.30;;
17052;SDS011;8643;48.824;11.422;2024-03-23T09:14:52;6.50;;;3.30;;
17052;SDS011;8643;48.824;11.422;2024-03-23T09:17:21;5.17;;;3.57;;
17052;SDS011;8643;48.824;11.422;2024-03-23T09:19:48;5.03;;;3.20;;
17052;SDS011;8643;48.824;11.422;2024-03-23T09:22:15;6.17;;;3.47;;
17052;SDS011;8643;48.824;11.422;2024-03-23T09:24:42;6.20;;;3.20;;
17052;SDS011;8643;48.824;11.422;2024-03-23T09:27:09;5.23;;;2.90;;
17052;SDS011;8643;48.824;11.422;2024-03-23T09:29:36;4.83;;;2.63;;
17052;SDS011;8643;48.824;11.422;2024-03-23T09:32:04;3.57;;;2.40;;
17052;SDS011;8643;48.824;11.422;2024-03-23T09:34:32;4.27;;;2.63;;
17052;SDS011;8643;48.824;11.422;2024-03-23T09:37:01;4.30;;;3.00;;
17052;SDS011;8643;48.824;11.422;2024-03-23T09:39:27;3.47;;;2.30;;
17052;SDS011;8643;48.824;11.422;2024-03-23T09:41:56;3.13;;;1.90;;
17052;SDS011;8643;48.824;11.422;2024-03-23T09:44:23;2.60;;;1.70;;
17052;SDS011;8643;48.824;11.422;2024-03-23T09:46:54;2.77;;;1.27;;
17052;SDS011;8643;48.824;11.422;2024-03-23T09:49:22;1.53;;;1.00;;
17052;SDS011;8643;48.824;11.422;2024-03-23T09:51:51;1.40;;;0.83;;
17052;SDS011;8643;48.824;11.422;2024-03-23T09:54:18;1.33;;;1.03;;
17052;SDS011;8643;48.824;11.422;2024-03-23T09:56:46;1.83;;;1.23;;
17052;SDS011;8643;48.824;11.422;2024-03-23T09:59:12;1.50;;;1.10;;
17052;SDS011;8643;48.824;11.422;2024-03-23T10:01:39;3.43;;;1.43;;
17052;SDS011;8643;48.824;11.422;2024-03-23T10:04:06;1.10;;;1.00;;
17052;SDS011;8643;48.824;11.422;2024-03-23T10:06:33;1.17;;;1.00;;
17052;SDS011;8643;48.824;11.422;2024-03-23T10:09:01;1.63;;;1.10;;
17052;SDS011;8643;48.824;11.422;2024-03-23T10:11:43;1.53;;;1.10;;
17052;SDS011;8643;48.824;11.422;2024-03-23T10:14:16;1.47;;;1.13;;
17052;SDS011;8643;48.824;11.422;2024-03-23T10:16:59;0.93;;;0.80;;
17052;SDS011;8643;48.824;11.422;2024-03-23T10:19:39;0.70;;;0.70;;
17052;SDS011;8643;48.824;11.422;2024-03-23T10:22:09;1.37;;;1.10;;
17052;SDS011;8643;48.824;11.422;2024-03-23T10:24:40;1.20;;;1.10;;
17052;SDS011;8643;48.824;11.422;2024-03-23T10:27:08;1.33;;;1.10;;
17052;SDS011;8643;48.824;11.422;2024-03-23T10:29:35;3.77;;;1.13;;
17052;SDS011;8643;48.824;11.422;2024-03-23T10:32:09;1.57;;;1.17;;
17052;SDS011;8643;48.824;11.422;2024-03-23T10:34:37;1.30;;;1.10;;
17052;SDS011;8643;48.824;11.422;2024-03-23T10:37:06;3.33;;;1.10;;
17052;SDS011;8643;48.824;11.422;2024-03-23T10:39:33;5.23;;;1.30;;
17052;SDS011;8643;48.824;11.422;2024-03-23T10:42:05;1.47;;;1.20;;
17052;SDS011;8643;48.824;11.422;2024-03-23T10:44:33;1.40;;;1.10;;
17052;SDS011;8643;48.824;11.422;2024-03-23T10:47:01;1.37;;;1.27;;
17052;SDS011;8643;48.824;11.422;2024-03-23T10:49:30;1.83;;;1.23;;
17052;SDS011;8643;48.824;11.422;2024-03-23T10:52:00;1.33;;;1.20;;
17052;SDS011;8643;48.824;11.422;2024-03-23T10:54:29;1.70;;;1.27;;
17052;SDS011;8643;48.824;11.422;2024-03-23T10:56:59;1.50;;;1.27;;
17052;SDS011;8643;48.824;11.422;2024-03-23T10:59:33;2.33;;;1.70;;
17052;SDS011;8643;48.824;11.422;2024-03-23T11:02:04;2.80;;;1.90;;
17052;SDS011;8643;48.824;11.422;2024-03-23T11:04:34;2.97;;;2.23;;
17052;SDS011;8643;48.824;11.422;2024-03-23T11:07:06;2.10;;;1.80;;
17052;SDS011;8643;48.824;11.422;2024-03-23T11:09:57;2.90;;;1.90;;
17052;SDS011;8643;48.824;11.422;2024-03-23T11:12:28;3.33;;;1.70;;
17052;SDS011;8643;48.824;11.422;2024-03-23T11:15:02;2.40;;;1.60;;
17052;SDS011;8643;48.824;11.422;2024-03-23T11:17:32;2.33;;;1.77;;
17052;SDS011;8643;48.824;11.422;2024-03-23T11:19:59;2.57;;;1.70;;
17052;SDS011;8643;48.824;11.422;2024-03-23T11:22:41;4.07;;;1.87;;
17052;SDS011;8643;48.824;11.422;2024-03-23T11:25:13;2.83;;;1.80;;
17052;SDS011;8643;48.824;11.422;2024-03-23T11:27:47;3.40;;;2.03;;
17052;SDS011;8643;48.824;11.422;2024-03-23T11:30:16;2.93;;;1.80;;
17052;SDS011;8643;48.824;11.422;2024-03-23T11:32:47;2.67;;;1.80;;
17052;SDS011;8643;48.824;11.422;2024-03-23T11:35:25;3.90;;;1.90;;
17052;SDS011;8643;48.824;11.422;2024-03-23T11:38:01;2.47;;;1.80;;
17052;SDS011;8643;48.824;11.422;2024-03-23T11:40:32;2.50;;;1.67;;
17052;SDS011;8643;48.824;11.422;2024-03-23T11:43:03;3.57;;;2.10;;
17052;SDS011;8643;48.824;11.422;2024-03-23T11:45:34;2.87;;;1.80;;
17052;SDS011;8643;48.824;11.422;2024-03-23T11:48:05;5.90;;;2.10;;
17052;SDS011;8643;48.824;11.422;2024-03-23T11:50:34;4.88;;;2.22;;
17052;SDS011;8643;48.824;11.422;2024-03-23T11:53:06;3.55;;;2.10;;
17052;SDS011;8643;48.824;11.422;2024-03-23T11:55:46;2.60;;;2.00;;
17052;SDS011;8643;48.824;11.422;2024-03-23T11:58:18;4.37;;;2.13;;
17052;SDS011;8643;48.824;11.422;2024-03-23T12:00:51;5.13;;;2.30;;
17052;SDS011;8643;48.824;11.422;2024-03-23T12:03:19;4.50;;;2.20;;
17052;SDS011;8643;48.824;11.422;2024-03-23T12:05:48;5.73;;;3.20;;
17052;SDS011;8643;48.824;11.422;2024-03-23T12:08:19;7.67;;;3.77;;
17052;SDS011;8643;48.824;11.422;2024-03-23T12:10:50;7.57;;;4.00;;
17052;SDS011;8643;48.824;11.422;2024-03-23T12:13:20;4.97;;;2.33;;
17052;SDS011;8643;48.824;11.422;2024-03-23T12:15:49;5.40;;;3.30;;
17052;SDS011;8643;48.824;11.422;2024-03-23T12:18:16;4.88;;;2.80;;
17052;SDS011;8643;48.824;11.422;2024-03-23T12:20:49;4.07;;;2.28;;
17052;SDS011;8643;48.824;11.422;2024-03-23T12:23:16;3.45;;;2.38;;
17052;SDS011;8643;48.824;11.422;2024-03-23T12:25:43;3.47;;;2.20;;
17052;SDS011;8643;48.824;11.422;2024-03-23T12:28:10;5.22;;;2.70;;
17052;SDS011;8643;48.824;11.422;2024-03-23T12:30:39;4.78;;;2.40;;
17052;SDS011;8643;48.824;11.422;2024-03-23T12:33:06;5.00;;;2.60;;
17052;SDS011;8643;48.824;11.422;2024-03-23T12:35:33;2.80;;;1.87;;
17052;SDS011;8643;48.824;11.422;2024-03-23T12:38:00;4.20;;;2.15;;
17052;SDS011;8643;48.824;11.422;2024-03-23T12:40:28;5.07;;;2.58;;
17052;SDS011;8643;48.824;11.422;2024-03-23T12:42:55;7.05;;;2.72;;
17052;SDS011;8643;48.824;11.422;2024-03-23T12:45:22;5.35;;;2.70;;
17052;SDS011;8643;48.824;11.422;2024-03-23T12:47:50;5.78;;;2.28;;
17052;SDS011;8643;48.824;11.422;2024-03-23T12:50:19;5.82;;;2.35;;
17052;SDS011;8643;48.824;11.422;2024-03-23T12:52:46;4.70;;;2.10;;
17052;SDS011;8643;48.824;11.422;2024-03-23T12:55:14;5.80;;;2.00;;
17052;SDS011;8643;48.824;11.422;2024-03-23T12:57:41;6.00;;;2.13;;
17052;SDS011;8643;48.824;11.422;2024-03-23T13:00:09;4.03;;;1.93;;
17052;SDS011;8643;48.824;11.422;2024-03-23T13:02:37;4.53;;;2.00;;
17052;SDS011;8643;48.824;11.422;2024-03-23T13:05:07;6.18;;;2.55;;
17052;SDS011;8643;48.824;11.422;2024-03-23T13:07:34;6.10;;;2.23;;
17052;SDS011;8643;48.824;11.422;2024-03-23T13:10:03;6.00;;;2.53;;
17052;SDS011;8643;48.824;11.422;2024-03-23T13:12:31;7.20;;;3.10;;
17052;SDS011;8643;48.824;11.422;2024-03-23T13:14:59;6.30;;;2.50;;
17052;SDS011;8643;48.824;11.422;2024-03-23T13:17:26;9.77;;;2.80;;
17052;SDS011;8643;48.824;11.422;2024-03-23T13:19:53;7.50;;;2.57;;
17052;SDS011;8643;48.824;11.422;2024-03-23T13:22:22;5.00;;;2.27;;
17052;SDS011;8643;48.824;11.422;2024-03-23T13:24:49;6.00;;;2.23;;
17052;SDS011;8643;48.824;11.422;2024-03-23T13:27:16;6.40;;;2.67;;
17052;SDS011;8643;48.824;11.422;2024-03-23T13:29:44;6.23;;;2.70;;
17052;SDS011;8643;48.824;11.422;2024-03-23T13:32:12;9.37;;;2.97;;
17052;SDS011;8643;48.824;11.422;2024-03-23T13:34:40;6.13;;;2.80;;
17052;SDS011;8643;48.824;11.422;2024-03-23T13:37:06;5.97;;;2.80;;
17052;SDS011;8643;48.824;11.422;2024-03-23T13:39:36;10.57;;;3.30;;
17052;SDS011;8643;48.824;11.422;2024-03-23T13:42:03;9.27;;;2.90;;
17052;SDS011;8643;48.824;11.422;2024-03-23T13:44:31;6.07;;;2.67;;
17052;SDS011;8643;48.824;11.422;2024-03-23T13:46:58;5.77;;;3.07;;
17052;SDS011;8643;48.824;11.422;2024-03-23T13:49:25;8.37;;;3.23;;
17052;SDS011;8643;48.824;11.422;2024-03-23T13:51:54;7.90;;;2.87;;
17052;SDS011;8643;48.824;11.422;2024-03-23T13:54:23;7.37;;;2.70;;
17052;SDS011;8643;48.824;11.422;2024-03-23T13:56:51;11.30;;;2.97;;
17052;SDS011;8643;48.824;11.422;2024-03-23T13:59:21;4.97;;;2.73;;
17052;SDS011;8643;48.824;11.422;2024-03-23T14:01:48;8.00;;;2.83;;
17052;SDS011;8643;48.824;11.422;2024-03-23T14:04:16;7.10;;;3.00;;
17052;SDS011;8643;48.824;11.422;2024-03-23T14:06:45;7.20;;;2.93;;
17052;SDS011;8643;48.824;11.422;2024-03-23T14:09:13;8.03;;;2.83;;
17052;SDS011;8643;48.824;11.422;2024-03-23T14:11:46;7.57;;;2.60;;
17052;SDS011;8643;48.824;11.422;2024-03-23T14:14:14;6.40;;;2.80;;
17052;SDS011;8643;48.824;11.422;2024-03-23T14:16:42;4.47;;;1.90;;
17052;SDS011;8643;48.824;11.422;2024-03-23T14:19:09;9.73;;;2.10;;
17052;SDS011;8643;48.824;11.422;2024-03-23T14:21:36;6.57;;;1.70;;
17052;SDS011;8643;48.824;11.422;2024-03-23T14:24:04;5.00;;;1.60;;
17052;SDS011;8643;48.824;11.422;2024-03-23T14:26:31;6.20;;;1.90;;
17052;SDS011;8643;48.824;11.422;2024-03-23T14:28:58;7.00;;;2.90;;
17052;SDS011;8643;48.824;11.422;2024-03-23T14:31:26;6.60;;;2.23;;
17052;SDS011;8643;48.824;11.422;2024-03-23T14:33:54;5.27;;;1.70;;
17052;SDS011;8643;48.824;11.422;2024-03-23T14:36:20;5.33;;;1.80;;
17052;SDS011;8643;48.824;11.422;2024-03-23T14:38:47;4.60;;;1.80;;
17052;SDS011;8643;48.824;11.422;2024-03-23T14:41:14;3.53;;;1.70;;
17052;SDS011;8643;48.824;11.422;2024-03-23T14:43:42;4.77;;;1.60;;
17052;SDS011;8643;48.824;11.422;2024-03-23T14:46:09;5.43;;;1.97;;
17052;SDS011;8643;48.824;11.422;2024-03-23T14:48:41;5.50;;;1.70;;
17052;SDS011;8643;48.824;11.422;2024-03-23T14:51:09;6.70;;;1.60;;
17052;SDS011;8643;48.824;11.422;2024-03-23T14:53:37;4.10;;;2.00;;
17052;SDS011;8643;48.824;11.422;2024-03-23T14:56:06;5.53;;;1.80;;
17052;SDS011;8643;48.824;11.422;2024-03-23T14:58:35;8.50;;;2.40;;
17052;SDS011;8643;48.824;11.422;2024-03-23T15:01:02;7.63;;;2.10;;
17052;SDS011;8643;48.824;11.422;2024-03-23T15:03:30;4.68;;;1.63;;
17052;SDS011;8643;48.824;11.422;2024-03-23T15:05:59;8.18;;;2.03;;
17052;SDS011;8643;48.824;11.422;2024-03-23T15:08:27;3.97;;;1.65;;
17052;SDS011;8643;48.824;11.422;2024-03-23T15:10:53;2.92;;;1.70;;
17052;SDS011;8643;48.824;11.422;2024-03-23T15:13:21;5.20;;;2.00;;
17052;SDS011;8643;48.824;11.422;2024-03-23T15:15:48;5.63;;;2.30;;
17052;SDS011;8643;48.824;11.422;2024-03-23T15:18:17;6.25;;;2.13;;
17052;SDS011;8643;48.824;11.422;2024-03-23T15:20:51;6.05;;;1.80;;
17052;SDS011;8643;48.824;11.422;2024-03-23T15:23:21;6.28;;;1.75;;
17052;SDS011;8643;48.824;11.422;2024-03-23T15:25:53;4.88;;;1.67;;
17052;SDS011;8643;48.824;11.422;2024-03-23T15:28:21;3.78;;;1.80;;
17052;SDS011;8643;48.824;11.422;2024-03-23T15:30:48;5.95;;;1.80;;
17052;SDS011;8643;48.824;11.422;2024-03-23T15:33:16;4.70;;;1.70;;
17052;SDS011;8643;48.824;11.422;2024-03-23T15:35:43;6.78;;;1.80;;
17052;SDS011;8643;48.824;11.422;2024-03-23T15:38:10;7.80;;;3.40;;
17052;SDS011;8643;48.824;11.422;2024-03-23T15:40:38;4.05;;;1.77;;
17052;SDS011;8643;48.824;11.422;2024-03-23T15:43:05;5.13;;;2.00;;